Estestar — 3ECR8 — position and weather

sailwx.info

Track history (hours):
 
Tides and Currents Weather Stations Pressure Air Temp Water Temp Dewpoint Dewpoint Depression Visibility Wind Speed Wind Dir Waves Ship Positions

Estestar

Last reported at 2014-Dec-16 22:29 UTC. Time now 2014-Dec-19 13:00 UTC.
Position N 40°44' E 029°42'.

Length 133 m; draft 7.5 m.

Type: Cargo ship. MMSI: 371448000.

Date/timePositionNaut miles runAvg speedWind from/ knotsBaromVisibWave heightAir tempDewpointWater temp
2014-Dec-16 22:29N 40°44' E 029°42'10 9.9
2014-Dec-16 21:29N 40°45' E 029°29'9 9.2
2014-Dec-16 20:32N 40°44' E 029°18'9 9.5
2014-Dec-16 19:33N 40°43' E 029°05'10 9.8
2014-Dec-16 18:33N 40°43' E 028°53'9 9.5
2014-Dec-16 17:33N 40°43' E 028°40'109 9.0
2014-Dec-16 05:25N 40°09' E 026°24'10 8.6
2014-Dec-16 04:19N 40°01' E 026°16'15 8.3
2014-Dec-16 02:33N 39°56' E 025°58'15 9.8
2014-Dec-16 01:04N 39°43' E 025°48'812.1
2014-Dec-16 00:26N 39°37' E 025°43'7 8.0
2014-Dec-15 23:31N 39°30' E 025°39'81 9.8
2014-Dec-15 15:14N 38°18' E 024°53'7 9.1
2014-Dec-15 14:27N 38°11' E 024°49'16 8.6
2014-Dec-15 12:33N 37°57' E 024°39'9 8.7
2014-Dec-15 11:33N 37°49' E 024°34'9 9.4
2014-Dec-15 10:33N 37°41' E 024°29'10 9.3
2014-Dec-15 09:31N 37°33' E 024°23'9 9.0
2014-Dec-15 08:33N 37°26' E 024°16'9 9.1
2014-Dec-15 07:33N 37°20' E 024°07'10 9.5
2014-Dec-15 06:32N 37°12' E 023°60'9 9.4
2014-Dec-15 05:33N 37°05' E 023°52'10 9.4
2014-Dec-15 04:28N 36°57' E 023°44'8 9.3
2014-Dec-15 03:33N 36°51' E 023°37'10 9.5
2014-Dec-15 02:33N 36°43' E 023°30'10 9.6
2014-Dec-15 01:30N 36°35' E 023°23'  
Track history (hours):
 
Tides and Currents Weather Stations Pressure Air Temp Water Temp Dewpoint Dewpoint Depression Visibility Wind Speed Wind Dir Waves Ship Positions

Estestar

Last reported at 2014-Dec-16 22:29 UTC. Time now 2014-Dec-19 13:00 UTC.
Position N 40°44' E 029°42'.

Length 133 m; draft 7.5 m.

Type: Cargo ship. MMSI: 371448000.

Date/timePositionNaut miles runAvg speedWind from/ knotsBaromVisibWave heightAir tempDewpointWater temp
2014-Dec-16 22:29N 40°44' E 029°42'10 9.9
2014-Dec-16 21:29N 40°45' E 029°29'9 9.2
2014-Dec-16 20:32N 40°44' E 029°18'9 9.5
2014-Dec-16 19:33N 40°43' E 029°05'10 9.8
2014-Dec-16 18:33N 40°43' E 028°53'9 9.5
2014-Dec-16 17:33N 40°43' E 028°40'109 9.0
2014-Dec-16 05:25N 40°09' E 026°24'10 8.6
2014-Dec-16 04:19N 40°01' E 026°16'15 8.3
2014-Dec-16 02:33N 39°56' E 025°58'15 9.8
2014-Dec-16 01:04N 39°43' E 025°48'812.1
2014-Dec-16 00:26N 39°37' E 025°43'7 8.0
2014-Dec-15 23:31N 39°30' E 025°39'81 9.8
2014-Dec-15 15:14N 38°18' E 024°53'7 9.1
2014-Dec-15 14:27N 38°11' E 024°49'16 8.6
2014-Dec-15 12:33N 37°57' E 024°39'9 8.7
2014-Dec-15 11:33N 37°49' E 024°34'9 9.4
2014-Dec-15 10:33N 37°41' E 024°29'10 9.3
2014-Dec-15 09:31N 37°33' E 024°23'9 9.0
2014-Dec-15 08:33N 37°26' E 024°16'9 9.1
2014-Dec-15 07:33N 37°20' E 024°07'10 9.5
2014-Dec-15 06:32N 37°12' E 023°60'9 9.4
2014-Dec-15 05:33N 37°05' E 023°52'10 9.4
2014-Dec-15 04:28N 36°57' E 023°44'8 9.3
2014-Dec-15 03:33N 36°51' E 023°37'10 9.5
2014-Dec-15 02:33N 36°43' E 023°30'10 9.6
2014-Dec-15 01:30N 36°35' E 023°23'  

Dump ship's entire track history